createdAt,value
2023-01-30T00:02:36.087Z,43.20
2023-01-30T00:05:23.553Z,42.53
2023-01-30T00:08:11.016Z,44.27
2023-01-30T00:10:58.390Z,42.50
2023-01-30T00:13:46.066Z,44.63
2023-01-30T00:16:33.524Z,39.20
2023-01-30T00:19:20.866Z,42.57
2023-01-30T00:22:08.300Z,45.00
2023-01-30T00:24:55.783Z,41.00
2023-01-30T00:27:43.300Z,46.63
2023-01-30T00:30:31.181Z,43.70
2023-01-30T00:33:19.207Z,45.83
2023-01-30T00:36:06.870Z,49.13
2023-01-30T00:38:54.294Z,47.43
2023-01-30T00:42:00.315Z,48.03
2023-01-30T00:45:06.360Z,45.23
2023-01-30T00:47:53.715Z,46.13
2023-01-30T00:50:44.264Z,48.43
2023-01-30T00:53:31.599Z,47.87
2023-01-30T00:56:19.006Z,48.40
2023-01-30T00:59:06.449Z,46.60
2023-01-30T01:01:53.831Z,46.03
2023-01-30T01:04:44.495Z,45.57
2023-01-30T01:07:31.832Z,47.50
2023-01-30T01:10:19.355Z,44.77
2023-01-30T01:13:07.023Z,47.90
2023-01-30T01:15:54.517Z,44.40
2023-01-30T01:18:41.908Z,49.20
2023-01-30T01:21:29.283Z,46.67
2023-01-30T01:24:16.757Z,49.33
2023-01-30T01:27:04.328Z,44.73
2023-01-30T01:29:51.688Z,47.20
2023-01-30T01:32:39.037Z,49.37
2023-01-30T01:35:26.437Z,48.53
2023-01-30T01:38:14.087Z,57.03
2023-01-30T01:41:01.950Z,51.40
2023-01-30T01:44:02.140Z,48.63
2023-01-30T01:46:52.303Z,46.33
2023-01-30T01:49:40.452Z,45.97
2023-01-30T01:52:28.097Z,49.30
2023-01-30T01:55:16.270Z,47.83
2023-01-30T01:58:06.436Z,46.13
2023-01-30T02:00:55.871Z,45.40
2023-01-30T02:03:44.924Z,42.23
2023-01-30T02:06:33.110Z,44.93
2023-01-30T02:09:20.511Z,41.60
2023-01-30T02:12:08.024Z,41.90
2023-01-30T02:14:56.849Z,43.67
2023-01-30T02:17:44.213Z,43.63
2023-01-30T02:20:41.000Z,40.77
2023-01-30T02:23:39.016Z,40.13
2023-01-30T02:26:43.752Z,38.10
2023-01-30T02:29:49.560Z,39.40
2023-01-30T02:32:49.097Z,37.20
2023-01-30T02:35:41.944Z,29.50
2023-01-30T02:38:48.171Z,36.90
2023-01-30T02:41:40.529Z,30.07
2023-01-30T02:44:41.121Z,32.80
2023-01-30T02:47:34.527Z,29.57
2023-01-30T02:50:25.608Z,28.27
2023-01-30T02:53:13.183Z,31.77
2023-01-30T02:56:02.021Z,28.97
2023-01-30T02:58:52.285Z,29.23
2023-01-30T03:01:54.955Z,27.50
2023-01-30T03:04:48.443Z,27.27
2023-01-30T03:07:45.859Z,27.17
2023-01-30T03:11:08.660Z,29.93
2023-01-30T03:14:03.092Z,26.93
2023-01-30T03:16:52.822Z,23.90
2023-01-30T03:19:40.512Z,23.33
2023-01-30T03:22:27.875Z,25.33
2023-01-30T03:25:21.789Z,23.27
2023-01-30T03:28:10.046Z,21.13
2023-01-30T03:30:57.502Z,23.17
2023-01-30T03:33:45.161Z,22.13
2023-01-30T03:36:32.585Z,23.17
2023-01-30T03:39:20.215Z,21.27
2023-01-30T03:42:07.746Z,21.03
2023-01-30T03:44:55.199Z,19.03
2023-01-30T03:47:42.633Z,16.93
2023-01-30T03:50:30.033Z,18.17
2023-01-30T03:53:17.365Z,16.73
2023-01-30T03:56:04.851Z,20.10
2023-01-30T03:58:52.331Z,19.77
2023-01-30T04:01:39.945Z,16.20
2023-01-30T04:04:27.345Z,15.93
2023-01-30T04:07:14.780Z,19.43
2023-01-30T04:10:02.171Z,11.80
2023-01-30T04:12:51.650Z,14.87
2023-01-30T04:15:38.978Z,10.63
2023-01-30T04:18:26.373Z,11.50
2023-01-30T04:21:14.009Z,8.90
2023-01-30T04:24:01.882Z,10.00
2023-01-30T04:26:49.302Z,8.10
2023-01-30T04:29:36.794Z,6.17
2023-01-30T04:32:24.159Z,4.93
2023-01-30T04:35:11.665Z,5.50
2023-01-30T04:37:59.101Z,7.67
2023-01-30T04:40:52.845Z,6.27
2023-01-30T04:43:40.329Z,6.53
2023-01-30T04:46:27.682Z,6.03
2023-01-30T04:49:15.100Z,4.80
2023-01-30T04:52:02.630Z,4.27
2023-01-30T04:54:50.059Z,4.70
2023-01-30T04:57:37.456Z,4.60
2023-01-30T05:00:25.026Z,5.63
2023-01-30T05:03:12.446Z,6.40
2023-01-30T05:05:59.896Z,5.87
2023-01-30T05:08:51.269Z,3.30
2023-01-30T05:11:38.825Z,5.30
2023-01-30T05:14:26.222Z,7.27
2023-01-30T05:17:13.744Z,4.10
2023-01-30T05:20:01.395Z,6.70
2023-01-30T05:22:48.785Z,6.13
2023-01-30T05:25:36.127Z,7.13
2023-01-30T05:28:23.604Z,2.97
2023-01-30T05:31:12.300Z,6.87
2023-01-30T05:33:59.679Z,7.70
2023-01-30T05:36:47.096Z,7.13
2023-01-30T05:39:34.491Z,10.80
2023-01-30T05:42:21.865Z,7.70
2023-01-30T05:45:09.626Z,6.37
2023-01-30T05:48:01.342Z,8.30
2023-01-30T05:50:51.835Z,10.07
2023-01-30T05:53:39.480Z,7.17
2023-01-30T05:56:26.913Z,10.47
2023-01-30T05:59:15.282Z,10.23
2023-01-30T06:02:03.112Z,9.37
2023-01-30T06:04:50.637Z,9.20
2023-01-30T06:07:38.093Z,14.13
2023-01-30T06:10:25.603Z,10.73
2023-01-30T06:13:13.077Z,12.10
2023-01-30T06:16:00.563Z,13.40
2023-01-30T06:18:48.138Z,14.47
2023-01-30T06:21:35.516Z,17.47
2023-01-30T06:24:22.922Z,14.57
2023-01-30T06:27:10.329Z,17.70
2023-01-30T06:29:57.698Z,19.77
2023-01-30T06:32:45.142Z,14.50
2023-01-30T06:35:32.603Z,9.27
2023-01-30T06:38:20.713Z,10.97
2023-01-30T06:41:08.173Z,11.90
2023-01-30T06:43:55.840Z,16.20
2023-01-30T06:46:43.254Z,13.07
2023-01-30T06:49:30.682Z,17.23
2023-01-30T06:52:18.177Z,23.23
2023-01-30T06:55:05.849Z,12.93
2023-01-30T06:58:06.581Z,15.10
2023-01-30T07:00:54.406Z,12.43
2023-01-30T07:03:41.771Z,15.10
2023-01-30T07:06:29.249Z,19.83
2023-01-30T07:09:16.882Z,18.33
2023-01-30T07:12:04.388Z,18.67
2023-01-30T07:14:52.507Z,19.83
2023-01-30T07:17:43.460Z,9.87
2023-01-30T07:20:31.350Z,13.33
2023-01-30T07:23:18.985Z,12.43
2023-01-30T07:26:07.017Z,15.40
2023-01-30T07:28:54.372Z,9.70
2023-01-30T07:31:41.905Z,15.10
2023-01-30T07:34:29.663Z,14.13
2023-01-30T07:37:17.282Z,18.40
2023-01-30T07:40:04.846Z,19.77
2023-01-30T07:42:59.468Z,19.80
2023-01-30T07:45:48.331Z,16.73
2023-01-30T07:48:36.131Z,22.50
2023-01-30T07:51:23.479Z,15.17
2023-01-30T07:54:11.058Z,16.37
2023-01-30T07:56:58.631Z,16.87
2023-01-30T07:59:46.128Z,13.83
2023-01-30T08:02:33.656Z,17.67
2023-01-30T08:05:21.333Z,17.90
2023-01-30T08:08:08.925Z,15.77
2023-01-30T08:10:56.342Z,11.43
2023-01-30T08:13:43.793Z,13.33
2023-01-30T08:16:32.584Z,12.70
2023-01-30T08:19:20.303Z,15.63
2023-01-30T08:22:08.026Z,10.87
2023-01-30T08:24:55.458Z,16.27
2023-01-30T08:27:42.988Z,15.57
2023-01-30T08:30:30.651Z,17.83
2023-01-30T08:33:18.279Z,19.10
2023-01-30T08:36:06.055Z,14.77
2023-01-30T08:38:54.210Z,18.67
2023-01-30T08:41:45.172Z,16.20
2023-01-30T08:44:32.523Z,18.03
2023-01-30T08:47:19.982Z,22.40
2023-01-30T08:50:07.870Z,20.23
2023-01-30T08:52:55.370Z,19.40
2023-01-30T08:55:44.417Z,22.47
2023-01-30T08:58:32.141Z,24.23
2023-01-30T09:01:20.109Z,19.60
2023-01-30T09:04:07.684Z,30.07
2023-01-30T09:06:55.721Z,20.13
2023-01-30T09:09:43.236Z,20.13
2023-01-30T09:12:30.795Z,23.50
2023-01-30T09:15:18.565Z,24.57
2023-01-30T09:18:07.055Z,18.83
2023-01-30T09:21:02.943Z,17.67
2023-01-30T09:23:50.733Z,19.10
2023-01-30T09:26:40.280Z,22.77
2023-01-30T09:29:28.316Z,19.43
2023-01-30T09:32:16.038Z,23.60
2023-01-30T09:35:04.075Z,21.20
2023-01-30T09:37:53.111Z,19.10
2023-01-30T09:40:44.322Z,23.73
2023-01-30T09:43:54.964Z,25.03
2023-01-30T09:46:48.621Z,28.43
2023-01-30T09:49:54.869Z,23.60
2023-01-30T09:52:45.528Z,17.83
2023-01-30T09:55:34.288Z,26.07
2023-01-30T09:58:23.242Z,20.90
2023-01-30T10:01:17.017Z,31.37
2023-01-30T10:04:05.042Z,20.87
2023-01-30T10:07:09.441Z,18.53
2023-01-30T10:10:10.476Z,22.83
2023-01-30T10:12:58.011Z,18.30
2023-01-30T10:15:46.138Z,23.67
2023-01-30T10:18:47.010Z,20.00
2023-01-30T10:21:43.982Z,18.13
2023-01-30T10:24:46.939Z,23.63
2023-01-30T10:27:37.599Z,18.63
2023-01-30T10:30:25.584Z,17.70
2023-01-30T10:33:33.704Z,22.50
2023-01-30T10:36:24.231Z,25.87
2023-01-30T10:39:29.673Z,16.87
2023-01-30T10:42:35.896Z,11.13
2023-01-30T10:45:25.470Z,19.50
2023-01-30T10:48:43.207Z,17.00
2023-01-30T10:51:46.364Z,14.43
2023-01-30T10:54:37.767Z,19.83
2023-01-30T10:57:25.357Z,17.23
2023-01-30T11:00:17.878Z,9.87
2023-01-30T11:03:10.207Z,8.97
2023-01-30T11:06:02.387Z,6.57
2023-01-30T11:08:49.987Z,5.67
2023-01-30T11:11:52.042Z,3.37
2023-01-30T11:14:59.297Z,3.13
2023-01-30T11:17:46.858Z,7.67
2023-01-30T11:20:39.575Z,3.33
2023-01-30T11:23:35.043Z,4.03
2023-01-30T11:26:41.516Z,4.07
2023-01-30T11:29:37.844Z,3.83
2023-01-30T11:32:29.695Z,2.63
2023-01-30T11:35:28.831Z,2.27
2023-01-30T11:38:27.047Z,1.97
2023-01-30T11:41:19.321Z,3.63
2023-01-30T11:44:06.704Z,2.70
2023-01-30T11:46:54.241Z,3.03
2023-01-30T11:50:03.274Z,2.00
2023-01-30T11:52:54.185Z,3.33
2023-01-30T11:55:45.043Z,2.83
2023-01-30T11:58:39.823Z,6.13
2023-01-30T12:01:28.436Z,6.93
2023-01-30T12:04:16.041Z,6.70
2023-01-30T12:07:08.826Z,3.97
2023-01-30T12:09:57.116Z,5.60
2023-01-30T12:12:46.167Z,7.73
2023-01-30T12:15:35.396Z,8.93
2023-01-30T12:18:29.501Z,4.73
2023-01-30T12:21:36.050Z,7.23
2023-01-30T12:24:32.580Z,12.03
2023-01-30T12:27:23.905Z,10.57
2023-01-30T12:30:26.804Z,15.53
2023-01-30T12:36:09.925Z,9.10
2023-01-30T12:39:14.682Z,4.77
2023-01-30T12:42:23.716Z,12.10
2023-01-30T12:45:27.099Z,6.00
2023-01-30T12:48:40.683Z,9.17
2023-01-30T12:51:49.414Z,11.17
2023-01-30T12:54:46.177Z,9.23
2023-01-30T12:57:34.359Z,7.93
2023-01-30T13:00:21.903Z,9.57
2023-01-30T13:03:15.470Z,5.00
2023-01-30T13:06:26.993Z,7.13
2023-01-30T13:09:22.394Z,13.40
2023-01-30T13:12:18.114Z,9.50
2023-01-30T13:15:14.817Z,8.43
2023-01-30T13:18:11.890Z,8.70
2023-01-30T13:21:10.169Z,11.60
2023-01-30T13:24:17.754Z,6.83
2023-01-30T13:27:09.426Z,10.13
2023-01-30T13:29:58.645Z,14.40
2023-01-30T13:32:53.374Z,12.98
2023-01-30T13:35:47.545Z,12.47
2023-01-30T13:38:37.855Z,9.27
2023-01-30T13:41:25.374Z,11.23
2023-01-30T13:44:31.359Z,11.77
2023-01-30T13:47:18.765Z,11.93
2023-01-30T13:50:06.118Z,10.93
2023-01-30T13:53:19.953Z,11.87
2023-01-30T13:56:39.541Z,12.07
2023-01-30T13:59:25.723Z,13.33
2023-01-30T14:02:23.765Z,14.93
2023-01-30T14:05:11.277Z,14.53
2023-01-30T14:07:58.940Z,16.53
2023-01-30T14:10:46.494Z,12.03
2023-01-30T14:13:35.377Z,11.30
2023-01-30T14:16:22.877Z,12.07
2023-01-30T14:19:29.139Z,16.93
2023-01-30T14:22:27.526Z,9.63
2023-01-30T14:25:23.886Z,18.87
2023-01-30T14:28:11.395Z,18.17
2023-01-30T14:31:02.980Z,24.30
2023-01-30T14:33:51.664Z,19.83
2023-01-30T14:36:47.648Z,22.57
2023-01-30T14:39:38.935Z,22.03
2023-01-30T14:42:27.719Z,22.60
2023-01-30T14:45:17.291Z,20.73
2023-01-30T14:48:23.905Z,20.87
2023-01-30T14:51:23.334Z,18.33
2023-01-30T14:54:10.998Z,23.10
2023-01-30T14:57:01.710Z,19.90
2023-01-30T15:00:14.993Z,19.33
2023-01-30T15:03:05.577Z,15.87
2023-01-30T15:05:53.475Z,21.63
2023-01-30T15:08:44.447Z,12.00
2023-01-30T15:11:33.430Z,16.60
2023-01-30T15:14:29.713Z,16.83
2023-01-30T15:17:20.548Z,18.13
2023-01-30T15:20:13.228Z,16.07
2023-01-30T15:23:00.920Z,13.13
2023-01-30T15:26:10.703Z,9.40
2023-01-30T15:29:05.879Z,15.10
2023-01-30T15:31:57.480Z,14.10
2023-01-30T15:34:58.260Z,20.23
2023-01-30T15:37:50.373Z,18.90
2023-01-30T15:40:42.495Z,14.67
2023-01-30T15:43:36.142Z,25.57
2023-01-30T15:46:41.808Z,13.83
2023-01-30T15:49:48.804Z,14.97
2023-01-30T15:52:40.389Z,15.30
2023-01-30T15:55:29.779Z,20.47
2023-01-30T15:58:19.705Z,22.47
2023-01-30T16:01:07.652Z,17.47
2023-01-30T16:03:58.170Z,20.90
2023-01-30T16:06:46.923Z,19.07
2023-01-30T16:09:34.976Z,18.07
2023-01-30T16:12:29.998Z,22.70
2023-01-30T16:15:20.073Z,22.77
2023-01-30T16:18:10.731Z,21.90
2023-01-30T16:24:07.211Z,18.43
2023-01-30T16:27:01.247Z,18.60
2023-01-30T16:29:54.615Z,20.80
2023-01-30T16:32:42.763Z,19.43
2023-01-30T16:35:31.323Z,24.13
2023-01-30T16:38:37.448Z,25.43
2023-01-30T16:41:31.319Z,23.07
2023-01-30T16:44:20.840Z,11.93
2023-01-30T16:47:28.886Z,18.13
2023-01-30T16:50:23.607Z,26.93
2023-01-30T16:53:18.619Z,24.43
2023-01-30T16:56:10.943Z,22.60
2023-01-30T16:58:59.796Z,21.17
2023-01-30T17:01:47.589Z,19.87
2023-01-30T17:04:40.416Z,20.37
2023-01-30T17:07:34.113Z,23.30
2023-01-30T17:10:32.131Z,25.97
2023-01-30T17:13:27.547Z,20.27
2023-01-30T17:16:24.846Z,21.27
2023-01-30T17:19:12.698Z,22.60
2023-01-30T17:22:02.041Z,23.63
2023-01-30T17:24:49.479Z,22.97
2023-01-30T17:27:37.121Z,20.03
2023-01-30T17:30:24.816Z,22.67
2023-01-30T17:33:12.407Z,15.80
2023-01-30T17:36:02.138Z,18.23
2023-01-30T17:38:49.753Z,19.67
2023-01-30T17:41:37.321Z,13.97
2023-01-30T17:44:24.733Z,17.57
2023-01-30T17:47:12.581Z,21.57
2023-01-30T17:49:59.996Z,17.70
2023-01-30T17:52:47.477Z,16.27
2023-01-30T17:55:35.015Z,10.60
2023-01-30T17:58:22.889Z,19.83
2023-01-30T18:01:12.039Z,13.00
2023-01-30T18:03:59.599Z,12.93
2023-01-30T18:06:48.539Z,14.80
2023-01-30T18:09:35.975Z,11.33
2023-01-30T18:12:23.382Z,12.13
2023-01-30T18:15:11.082Z,14.47
2023-01-30T18:17:58.627Z,11.00
2023-01-30T18:20:47.514Z,12.53
2023-01-30T18:23:36.960Z,13.93
2023-01-30T18:26:24.447Z,14.93
2023-01-30T18:29:12.092Z,12.20
2023-01-30T18:32:04.974Z,17.40
2023-01-30T18:34:52.531Z,10.67
2023-01-30T18:37:39.929Z,9.57
2023-01-30T18:40:27.631Z,13.47
2023-01-30T18:43:15.113Z,16.60
2023-01-30T18:46:03.624Z,13.33
2023-01-30T18:48:51.418Z,18.27
2023-01-30T18:51:40.385Z,12.83
2023-01-30T18:54:28.276Z,10.80
2023-01-30T18:57:15.634Z,11.80
2023-01-30T19:00:03.164Z,22.53
2023-01-30T19:02:51.502Z,12.30
2023-01-30T19:05:38.989Z,17.40
2023-01-30T19:08:26.672Z,14.90
2023-01-30T19:11:34.542Z,15.57
2023-01-30T19:14:22.245Z,15.47
2023-01-30T19:17:09.611Z,15.30
2023-01-30T19:19:57.440Z,17.80
2023-01-30T19:22:44.840Z,16.67
2023-01-30T19:25:32.204Z,16.00
2023-01-30T19:28:19.629Z,14.63
2023-01-30T19:31:07.891Z,17.43
2023-01-30T19:33:56.397Z,25.07
2023-01-30T19:36:43.864Z,22.50
2023-01-30T19:39:31.219Z,16.57
2023-01-30T19:42:18.638Z,16.63
2023-01-30T19:45:06.377Z,16.60
2023-01-30T19:47:53.940Z,17.27
2023-01-30T19:50:41.364Z,18.70
2023-01-30T19:53:28.867Z,16.63
2023-01-30T19:56:16.973Z,21.20
2023-01-30T19:59:04.799Z,16.50
2023-01-30T20:01:52.577Z,19.57
2023-01-30T20:04:40.695Z,11.57
2023-01-30T20:07:28.057Z,13.63
2023-01-30T20:10:15.802Z,16.77
2023-01-30T20:13:04.082Z,24.93
2023-01-30T20:15:52.050Z,17.00
2023-01-30T20:18:41.273Z,19.20
2023-01-30T20:21:29.724Z,12.17
2023-01-30T20:24:17.679Z,14.43
2023-01-30T20:27:05.438Z,13.13
2023-01-30T20:29:53.289Z,25.53
2023-01-30T20:32:40.821Z,14.57
2023-01-30T20:35:28.343Z,16.10
2023-01-30T20:38:16.006Z,25.10
2023-01-30T20:41:06.675Z,14.00
2023-01-30T20:43:57.291Z,11.50
2023-01-30T20:46:46.298Z,12.43
2023-01-30T20:49:34.026Z,14.50
2023-01-30T20:52:22.156Z,13.67
2023-01-30T20:55:09.780Z,11.70
2023-01-30T20:57:57.345Z,14.23
2023-01-30T21:00:44.904Z,13.20
2023-01-30T21:03:32.943Z,20.23
2023-01-30T21:06:42.400Z,21.00
2023-01-30T21:09:29.638Z,11.30
2023-01-30T21:12:17.251Z,16.97
2023-01-30T21:15:04.927Z,20.20
2023-01-30T21:17:52.629Z,16.83
2023-01-30T21:20:40.500Z,13.20
2023-01-30T21:23:28.612Z,11.43
2023-01-30T21:26:17.441Z,17.60
2023-01-30T21:29:07.036Z,15.03
2023-01-30T21:31:55.779Z,13.63
2023-01-30T21:34:44.160Z,10.90
2023-01-30T21:37:50.479Z,9.80
2023-01-30T21:40:56.918Z,13.03
2023-01-30T21:43:48.524Z,10.13
2023-01-30T21:46:38.301Z,12.73
2023-01-30T21:49:25.909Z,14.93
2023-01-30T21:52:13.334Z,10.70
2023-01-30T21:55:01.089Z,13.87
2023-01-30T21:57:48.484Z,11.87
2023-01-30T22:00:36.773Z,17.80
2023-01-30T22:03:27.907Z,11.30
2023-01-30T22:06:15.341Z,15.30
2023-01-30T22:09:03.576Z,9.27
2023-01-30T22:11:51.407Z,10.70
2023-01-30T22:14:39.030Z,12.17
2023-01-30T22:17:26.666Z,6.73
2023-01-30T22:20:14.594Z,8.57
2023-01-30T22:23:02.069Z,8.87
2023-01-30T22:25:55.419Z,6.60
2023-01-30T22:28:42.836Z,9.83
2023-01-30T22:31:32.431Z,9.53
2023-01-30T22:34:20.134Z,10.77
2023-01-30T22:37:07.689Z,11.63
2023-01-30T22:39:55.057Z,9.50
2023-01-30T22:42:46.962Z,10.47
2023-01-30T22:45:37.105Z,9.93
2023-01-30T22:48:24.652Z,10.20
2023-01-30T22:51:16.285Z,5.80
2023-01-30T22:54:05.645Z,10.27
2023-01-30T22:56:53.213Z,6.40
2023-01-30T22:59:41.327Z,12.47
2023-01-30T23:02:28.775Z,15.67
2023-01-30T23:05:16.280Z,12.80
2023-01-30T23:08:03.878Z,12.03
2023-01-30T23:10:51.323Z,11.43
2023-01-30T23:13:39.142Z,13.73
2023-01-30T23:16:27.547Z,13.93
2023-01-30T23:19:15.283Z,11.83
2023-01-30T23:22:02.836Z,8.50
2023-01-30T23:24:51.242Z,20.47
2023-01-30T23:27:39.109Z,8.97
2023-01-30T23:30:26.666Z,14.00
2023-01-30T23:33:14.436Z,9.57
2023-01-30T23:36:03.022Z,8.60
2023-01-30T23:38:51.354Z,13.13
2023-01-30T23:41:39.070Z,8.17
2023-01-30T23:44:26.489Z,9.60
2023-01-30T23:47:14.136Z,19.73
2023-01-30T23:50:01.792Z,10.80
2023-01-30T23:52:49.435Z,13.93
2023-01-30T23:55:37.090Z,11.67
2023-01-30T23:58:25.086Z,19.70
